Time;durP1;ratioP1;P1;durP2;ratioP2;P2;SDS_P1;SDS_P2;PMS_P1;PMS_P2;Temp;Humidity;BMP_temperature;BMP_pressure;BME280_temperature;BME280_humidity;BME280_pressure;Samples;Min_cycle;Max_cycle;Signal;HPM_P1;HPM_P2
2021/01/09 00:02:05;;;;;;;12.07;8.97;;;4.60;41.30;;;;;;5013521;28;20181;-66
2021/01/09 00:04:31;;;;;;;10.43;8.77;;;4.70;41.60;;;;;;5013470;28;20287;-66
2021/01/09 00:06:56;;;;;;;9.27;8.40;;;4.80;40.30;;;;;;5013623;28;20204;-66
2021/01/09 00:09:22;;;;;;;8.80;8.00;;;4.80;41.40;;;;;;5013298;28;20173;-66
2021/01/09 00:11:47;;;;;;;8.80;7.90;;;5.00;40.20;;;;;;5013450;28;20189;-66
2021/01/09 00:14:15;;;;;;;9.70;8.73;;;5.10;40.80;;;;;;5013229;28;20207;-66
2021/01/09 00:16:48;;;;;;;10.77;9.67;;;5.20;40.10;;;;;;5013597;28;20321;-66
2021/01/09 00:19:13;;;;;;;9.67;8.80;;;5.00;39.90;;;;;;5013334;28;20491;-66
2021/01/09 00:21:39;;;;;;;9.50;8.17;;;4.80;40.50;;;;;;5012898;28;20851;-66
2021/01/09 00:24:09;;;;;;;9.43;8.47;;;4.70;41.10;;;;;;5013128;28;20228;-66
2021/01/09 00:26:35;;;;;;;10.23;9.00;;;4.40;42.30;;;;;;5013664;28;20268;-66
2021/01/09 00:29:02;;;;;;;10.10;8.83;;;4.40;42.00;;;;;;5012924;28;20448;-66
2021/01/09 00:31:27;;;;;;;9.57;8.60;;;4.70;42.00;;;;;;5013058;28;20407;-66
2021/01/09 00:33:53;;;;;;;9.60;8.70;;;5.00;40.70;;;;;;5013055;28;20438;-66
2021/01/09 00:36:18;;;;;;;8.37;7.47;;;5.20;41.30;;;;;;5012877;28;20288;-66
2021/01/09 00:38:44;;;;;;;10.47;9.47;;;5.00;40.10;;;;;;5012790;28;20625;-66
2021/01/09 00:41:09;;;;;;;9.13;8.23;;;4.70;41.10;;;;;;5012778;28;20177;-66
2021/01/09 00:43:35;;;;;;;11.13;9.67;;;4.80;41.10;;;;;;5012782;28;20176;-66
2021/01/09 00:46:01;;;;;;;9.80;8.80;;;4.90;40.60;;;;;;5012648;28;20204;-66
2021/01/09 00:48:26;;;;;;;10.00;8.47;;;4.90;41.10;;;;;;5012566;28;20177;-66
2021/01/09 00:50:51;;;;;;;10.27;9.30;;;5.00;40.70;;;;;;5012940;28;20612;-66
2021/01/09 00:53:17;;;;;;;9.83;8.83;;;4.90;40.10;;;;;;5012727;28;20185;-67
2021/01/09 00:55:44;;;;;;;11.53;9.47;;;4.80;40.90;;;;;;5012391;28;20262;-66
2021/01/09 00:58:10;;;;;;;9.63;8.73;;;4.70;41.30;;;;;;5012536;28;20208;-66
2021/01/09 01:00:35;;;;;;;10.40;9.30;;;4.60;41.00;;;;;;5012581;28;21111;-66
2021/01/09 01:03:01;;;;;;;10.50;9.50;;;4.60;41.40;;;;;;5012555;28;20828;-66
2021/01/09 01:05:26;;;;;;;10.10;9.10;;;4.50;41.50;;;;;;5012294;28;20239;-66
2021/01/09 01:07:51;;;;;;;10.10;9.10;;;4.70;41.40;;;;;;5012220;28;20264;-66
2021/01/09 01:10:17;;;;;;;9.83;8.80;;;4.70;41.90;;;;;;5012381;28;20181;-65
2021/01/09 01:12:43;;;;;;;9.97;9.07;;;4.80;40.80;;;;;;5012541;28;20173;-66
2021/01/09 01:15:09;;;;;;;11.83;10.63;;;4.80;41.10;;;;;;5012127;28;20255;-66
2021/01/09 01:17:34;;;;;;;10.73;9.53;;;4.60;41.40;;;;;;5012159;28;20192;-66
2021/01/09 01:20:00;;;;;;;11.57;10.00;;;4.60;41.70;;;;;;5012242;28;21127;-66
2021/01/09 01:22:25;;;;;;;10.80;9.70;;;4.60;41.60;;;;;;5012209;28;20440;-66
2021/01/09 01:24:51;;;;;;;10.43;9.33;;;4.70;41.30;;;;;;5011808;28;20228;-66
2021/01/09 01:27:17;;;;;;;12.50;9.90;;;5.00;40.80;;;;;;5012657;28;20180;-66
2021/01/09 01:29:42;;;;;;;10.00;9.00;;;4.80;41.70;;;;;;5011982;28;20177;-66
2021/01/09 01:32:08;;;;;;;9.30;8.40;;;4.80;41.30;;;;;;5011266;28;20257;-66
2021/01/09 01:34:33;;;;;;;9.77;8.77;;;4.80;41.80;;;;;;5011743;28;20201;-66
2021/01/09 01:36:59;;;;;;;9.57;8.73;;;4.90;41.20;;;;;;5011906;28;20588;-66
2021/01/09 01:39:24;;;;;;;9.90;8.90;;;5.10;40.50;;;;;;5011833;28;20175;-66
2021/01/09 01:41:50;;;;;;;9.33;8.53;;;4.90;40.70;;;;;;5011829;28;20663;-66
2021/01/09 01:44:16;;;;;;;11.60;10.00;;;4.80;41.50;;;;;;5011836;28;20689;-66
2021/01/09 01:46:43;;;;;;;13.53;8.83;;;5.00;40.80;;;;;;5011633;28;20419;-66
2021/01/09 01:49:09;;;;;;;10.00;9.00;;;5.20;40.50;;;;;;5011506;28;20169;-66
2021/01/09 01:51:34;;;;;;;12.00;10.90;;;5.00;40.70;;;;;;5011682;28;20420;-66
2021/01/09 01:54:00;;;;;;;11.47;10.27;;;4.80;41.40;;;;;;5011573;28;20173;-66
2021/01/09 01:56:27;;;;;;;10.50;9.50;;;5.00;40.90;;;;;;5011696;28;20213;-66
2021/01/09 01:58:52;;;;;;;10.73;9.63;;;5.10;40.80;;;;;;5011422;28;20169;-66
2021/01/09 02:01:19;;;;;;;12.10;10.80;;;5.20;40.00;;;;;;5011538;28;20438;-66
2021/01/09 02:03:44;;;;;;;11.90;10.70;;;5.20;40.20;;;;;;5011350;28;20237;-66
2021/01/09 02:06:12;;;;;;;11.03;9.93;;;5.30;39.90;;;;;;5011287;28;20440;-66
2021/01/09 02:09:05;;;;;;;11.03;9.93;;;5.30;39.90;;;;;;5011454;28;20457;-66
2021/01/09 02:11:59;;;;;;;13.10;11.80;;;5.40;39.40;;;;;;5011412;28;20419;-66
2021/01/09 02:14:35;;;;;;;11.63;9.87;;;5.20;40.00;;;;;;5011141;28;20432;-66
2021/01/09 02:17:01;;;;;;;11.90;10.57;;;5.40;39.80;;;;;;5011396;28;20458;-66
2021/01/09 02:19:28;;;;;;;13.37;11.50;;;5.40;39.50;;;;;;5011261;28;20420;-66
2021/01/09 02:21:58;;;;;;;11.97;10.83;;;5.30;39.50;;;;;;5011299;28;20447;-66
2021/01/09 02:24:24;;;;;;;13.40;11.00;;;5.30;39.70;;;;;;5010950;28;20464;-66
2021/01/09 02:26:50;;;;;;;12.80;11.50;;;5.40;39.60;;;;;;5011155;28;20838;-66
2021/01/09 02:29:16;;;;;;;11.00;9.83;;;5.40;39.60;;;;;;5010987;28;20179;-66
2021/01/09 02:31:57;;;;;;;11.90;10.70;;;5.50;39.20;;;;;;5011091;28;20416;-66
2021/01/09 02:34:25;;;;;;;13.00;11.70;;;5.40;39.80;;;;;;5011032;28;20466;-66
2021/01/09 02:36:51;;;;;;;13.30;11.90;;;5.40;39.60;;;;;;5011142;28;20435;-66
2021/01/09 02:39:17;;;;;;;13.73;11.70;;;5.40;39.70;;;;;;5011061;28;20447;-66
2021/01/09 02:41:47;;;;;;;14.57;13.17;;;5.30;40.10;;;;;;5010996;28;20412;-66
2021/01/09 02:44:14;;;;;;;13.33;12.00;;;5.30;40.30;;;;;;5012950;28;20436;-66
2021/01/09 02:46:40;;;;;;;13.57;12.27;;;5.20;40.10;;;;;;5015100;28;20416;-66
2021/01/09 02:49:06;;;;;;;13.93;12.47;;;4.90;41.60;;;;;;5015000;28;20470;-66
2021/01/09 02:51:33;;;;;;;13.37;11.43;;;4.70;42.50;;;;;;5015043;28;20182;-66
2021/01/09 02:53:58;;;;;;;12.63;11.40;;;4.80;42.30;;;;;;5014792;28;20420;-66
2021/01/09 02:56:24;;;;;;;14.30;12.70;;;5.00;41.50;;;;;;5014774;28;20486;-66
2021/01/09 02:58:49;;;;;;;14.20;12.77;;;5.20;41.10;;;;;;5014528;28;20655;-66
2021/01/09 03:01:15;;;;;;;15.13;13.40;;;5.20;40.80;;;;;;5014838;28;20173;-66
2021/01/09 03:03:40;;;;;;;13.70;12.00;;;5.20;40.50;;;;;;5014879;28;20227;-66
2021/01/09 03:06:06;;;;;;;12.90;11.60;;;5.30;40.30;;;;;;5014847;28;20201;-65
2021/01/09 03:08:31;;;;;;;14.47;12.93;;;5.30;40.20;;;;;;5014473;28;20184;-66
2021/01/09 03:10:57;;;;;;;14.90;13.00;;;5.30;40.70;;;;;;5014738;28;20181;-66
2021/01/09 03:13:22;;;;;;;13.77;12.37;;;5.40;40.50;;;;;;5014480;28;20500;-66
2021/01/09 03:15:48;;;;;;;21.50;14.90;;;5.30;40.50;;;;;;5014280;28;20220;-66
2021/01/09 03:18:13;;;;;;;15.17;13.50;;;5.20;40.70;;;;;;5014352;28;20252;-66
2021/01/09 03:20:39;;;;;;;14.53;13.00;;;5.20;40.90;;;;;;5014469;28;20210;-66
2021/01/09 03:23:04;;;;;;;15.63;12.90;;;4.80;41.70;;;;;;5014442;28;20170;-66
2021/01/09 03:25:30;;;;;;;14.60;13.10;;;4.90;42.10;;;;;;5014186;28;20259;-66
2021/01/09 03:27:56;;;;;;;15.27;13.60;;;4.90;41.70;;;;;;5014089;28;20186;-66
2021/01/09 03:30:23;;;;;;;14.33;12.93;;;5.00;41.90;;;;;;5014314;28;20630;-66
2021/01/09 03:32:48;;;;;;;15.03;13.40;;;5.10;41.60;;;;;;5014163;28;20228;-66
2021/01/09 03:35:14;;;;;;;14.30;12.90;;;5.10;41.40;;;;;;5014267;28;20451;-66
2021/01/09 03:37:39;;;;;;;15.60;12.80;;;5.20;41.20;;;;;;5014190;28;20201;-66
2021/01/09 03:40:05;;;;;;;14.60;13.20;;;4.70;42.10;;;;;;5014369;28;20180;-66
2021/01/09 03:42:31;;;;;;;14.57;13.10;;;4.60;43.10;;;;;;5014242;28;20178;-66
2021/01/09 03:44:57;;;;;;;15.97;14.03;;;4.60;43.50;;;;;;5014388;28;20466;-66
2021/01/09 03:47:22;;;;;;;14.20;12.83;;;4.70;43.50;;;;;;5013945;28;20181;-66
2021/01/09 03:49:48;;;;;;;16.50;13.70;;;4.90;42.60;;;;;;5014098;28;20222;-65
2021/01/09 03:52:13;;;;;;;15.37;13.03;;;5.00;42.30;;;;;;5013799;28;20178;-66
2021/01/09 03:54:38;;;;;;;14.17;12.60;;;5.00;42.20;;;;;;5013452;28;20209;-66
2021/01/09 03:57:04;;;;;;;15.17;13.57;;;4.90;42.50;;;;;;5013032;28;20166;-65
2021/01/09 03:59:30;;;;;;;16.83;13.60;;;5.10;42.40;;;;;;5013770;28;20563;-66
2021/01/09 04:01:55;;;;;;;15.60;12.63;;;5.10;43.10;;;;;;5013976;28;20177;-66
2021/01/09 04:04:21;;;;;;;13.17;11.87;;;5.10;42.60;;;;;;5013618;28;20746;-66
2021/01/09 04:06:47;;;;;;;15.20;13.30;;;5.10;42.40;;;;;;5013631;28;20172;-67
2021/01/09 04:09:12;;;;;;;15.23;13.57;;;5.20;43.10;;;;;;5013534;28;20695;-66
2021/01/09 04:11:37;;;;;;;14.60;12.80;;;5.20;42.40;;;;;;5013580;28;20486;-66
2021/01/09 04:14:03;;;;;;;14.37;12.80;;;5.20;42.50;;;;;;5013409;28;20596;-66
2021/01/09 04:16:33;;;;;;;14.80;13.23;;;5.20;42.60;;;;;;5013329;28;20232;-66
2021/01/09 04:18:59;;;;;;;18.20;13.93;;;5.20;42.30;;;;;;5013336;28;20165;-66
2021/01/09 04:21:24;;;;;;;15.37;13.87;;;5.20;42.00;;;;;;5013560;28;20409;-66
2021/01/09 04:23:50;;;;;;;15.17;13.57;;;5.20;41.60;;;;;;5013126;28;20228;-66
2021/01/09 04:26:15;;;;;;;14.70;12.83;;;5.20;41.90;;;;;;5013056;28;20200;-66
2021/01/09 04:28:41;;;;;;;14.80;13.30;;;5.20;41.90;;;;;;5013151;28;20182;-66
2021/01/09 04:31:07;;;;;;;16.60;14.03;;;5.20;41.90;;;;;;5013162;28;20647;-66
2021/01/09 04:33:32;;;;;;;15.10;13.47;;;5.40;42.00;;;;;;5013065;28;20252;-67
2021/01/09 04:35:58;;;;;;;17.00;14.70;;;5.40;41.00;;;;;;5012885;28;20209;-66
2021/01/09 04:38:23;;;;;;;16.93;14.37;;;5.30;41.50;;;;;;5012861;28;20177;-67
2021/01/09 04:40:49;;;;;;;16.80;15.00;;;5.30;42.00;;;;;;5013297;28;20197;-67
2021/01/09 04:43:17;;;;;;;17.17;14.80;;;5.40;42.10;;;;;;5012839;28;20180;-66
2021/01/09 04:45:44;;;;;;;16.10;14.40;;;5.40;41.30;;;;;;5012876;28;20189;-66
2021/01/09 04:48:11;;;;;;;18.20;15.03;;;5.30;41.00;;;;;;5012624;28;20458;-66
2021/01/09 04:50:39;;;;;;;16.03;14.20;;;5.30;41.30;;;;;;5012703;28;20412;-66
2021/01/09 04:53:07;;;;;;;16.57;14.87;;;5.50;42.00;;;;;;5012668;28;20504;-66
2021/01/09 04:55:34;;;;;;;15.63;14.07;;;5.50;41.10;;;;;;5012551;28;20977;-66
2021/01/09 04:58:01;;;;;;;15.33;13.67;;;5.40;41.50;;;;;;5012479;28;20449;-66
2021/01/09 05:00:26;;;;;;;15.10;13.43;;;5.20;41.70;;;;;;5012647;28;20424;-66
2021/01/09 05:02:52;;;;;;;15.37;13.77;;;5.30;42.10;;;;;;5012658;28;20405;-66
2021/01/09 05:05:18;;;;;;;15.23;13.17;;;5.20;41.90;;;;;;5012494;28;20208;-66
2021/01/09 05:07:44;;;;;;;15.63;13.80;;;5.10;42.30;;;;;;5011297;28;20178;-66
2021/01/09 05:10:11;;;;;;;15.50;13.90;;;5.00;42.40;;;;;;5012455;28;20418;-66
2021/01/09 05:12:40;;;;;;;15.23;13.43;;;5.30;42.20;;;;;;5012512;28;20548;-66
2021/01/09 05:15:07;;;;;;;17.77;14.80;;;5.30;41.70;;;;;;5012501;28;20464;-66
2021/01/09 05:17:34;;;;;;;17.20;15.40;;;5.50;41.10;;;;;;5012387;28;20416;-66
2021/01/09 05:20:00;;;;;;;18.37;14.97;;;5.50;41.10;;;;;;5012405;28;20465;-66
2021/01/09 05:22:27;;;;;;;19.80;15.87;;;5.60;41.00;;;;;;5012240;28;20576;-66
2021/01/09 05:24:53;;;;;;;17.97;16.07;;;5.50;41.00;;;;;;5012104;28;20490;-67
2021/01/09 05:27:20;;;;;;;17.80;15.00;;;5.50;42.40;;;;;;5012082;28;20416;-66
2021/01/09 05:29:51;;;;;;;16.00;14.00;;;5.60;40.80;;;;;;5012296;28;20424;-66
2021/01/09 05:32:17;;;;;;;16.80;14.60;;;5.50;41.60;;;;;;5012178;28;20442;-66
2021/01/09 05:34:47;;;;;;;18.20;15.57;;;5.50;42.10;;;;;;5011972;28;20464;-66
2021/01/09 05:37:24;;;;;;;20.87;15.33;;;5.60;41.10;;;;;;5011769;28;20175;-66
2021/01/09 05:39:57;;;;;;;18.60;15.90;;;5.60;41.30;;;;;;5011820;28;20404;-66
2021/01/09 05:42:28;;;;;;;19.67;14.97;;;5.60;41.10;;;;;;5011836;28;20407;-66
2021/01/09 05:44:56;;;;;;;17.80;16.00;;;5.60;41.20;;;;;;5011756;28;20434;-66
2021/01/09 05:47:24;;;;;;;20.47;16.60;;;5.60;41.20;;;;;;5011575;28;20412;-66
2021/01/09 05:49:57;;;;;;;16.43;14.67;;;5.40;41.80;;;;;;5011905;28;20412;-66
2021/01/09 05:52:27;;;;;;;20.60;17.40;;;5.50;41.30;;;;;;5011850;28;20730;-66
2021/01/09 05:54:59;;;;;;;17.50;15.70;;;5.50;42.00;;;;;;5011412;28;20451;-66
2021/01/09 05:57:30;;;;;;;17.90;15.37;;;5.50;41.60;;;;;;5011301;28;20438;-66
2021/01/09 06:00:01;;;;;;;17.60;15.70;;;5.50;42.00;;;;;;5011404;28;20812;-66
2021/01/09 06:02:27;;;;;;;19.70;16.77;;;5.60;41.90;;;;;;5011563;28;20439;-66
2021/01/09 06:04:59;;;;;;;19.40;16.67;;;5.50;41.50;;;;;;5011386;28;20542;-66
2021/01/09 06:07:36;;;;;;;22.37;16.53;;;5.60;41.70;;;;;;5010733;28;20506;-66
2021/01/09 06:10:11;;;;;;;19.30;17.30;;;5.70;41.30;;;;;;5011477;28;20421;-66
2021/01/09 06:12:46;;;;;;;19.53;17.43;;;5.70;41.20;;;;;;5010764;28;20865;-66
2021/01/09 06:15:14;;;;;;;16.60;14.90;;;5.60;41.80;;;;;;5011225;28;20470;-66
2021/01/09 06:17:41;;;;;;;21.80;16.13;;;5.50;42.00;;;;;;5011124;28;20415;-66
2021/01/09 06:20:08;;;;;;;18.67;16.40;;;5.40;42.30;;;;;;5011460;28;20457;-66
2021/01/09 06:22:36;;;;;;;17.83;15.93;;;5.40;43.10;;;;;;5011664;28;20803;-65
2021/01/09 06:25:02;;;;;;;23.20;16.93;;;5.40;42.30;;;;;;5011336;28;20459;-66
2021/01/09 06:27:30;;;;;;;18.90;16.90;;;5.50;42.00;;;;;;5011342;28;20420;-66
2021/01/09 06:30:02;;;;;;;26.60;17.80;;;5.50;42.50;;;;;;5011419;28;20707;-66
2021/01/09 06:32:32;;;;;;;19.37;16.57;;;5.40;42.30;;;;;;5007283;28;20506;-65
2021/01/09 06:35:04;;;;;;;21.60;17.00;;;5.40;42.80;;;;;;5010277;28;20984;-65
2021/01/09 06:37:29;;;;;;;19.47;17.23;;;5.40;42.50;;;;;;5010195;28;20481;-65
2021/01/09 06:39:55;;;;;;;21.47;18.40;;;4.90;44.00;;;;;;5010694;28;20439;-66
2021/01/09 06:42:22;;;;;;;20.53;15.10;;;5.00;44.00;;;;;;5010587;28;20227;-66
2021/01/09 06:44:50;;;;;;;20.67;17.77;;;4.90;43.70;;;;;;5010706;28;20489;-64
2021/01/09 06:47:25;;;;;;;17.23;15.53;;;5.00;44.30;;;;;;5010654;28;20425;-64
2021/01/09 06:49:52;;;;;;;20.77;16.47;;;5.20;43.60;;;;;;5010179;28;20416;-64
2021/01/09 06:52:17;;;;;;;19.43;15.73;;;5.30;42.90;;;;;;5010134;28;20412;-62
2021/01/09 06:54:45;;;;;;;21.97;17.37;;;5.30;43.00;;;;;;5010078;28;21093;-63
2021/01/09 06:57:18;;;;;;;20.40;18.30;;;5.40;42.80;;;;;;5009922;28;20782;-64
2021/01/09 06:59:48;;;;;;;20.87;16.53;;;5.60;42.80;;;;;;5010695;28;20405;-64
2021/01/09 07:02:24;;;;;;;21.53;18.27;;;5.60;42.30;;;;;;5010597;28;20410;-63
2021/01/09 07:04:53;;;;;;;25.63;19.40;;;5.60;42.60;;;;;;5010304;28;20427;-63
2021/01/09 07:07:31;;;;;;;20.97;18.50;;;5.70;41.60;;;;;;5010457;28;20438;-63
2021/01/09 07:10:10;;;;;;;19.47;15.90;;;5.50;42.80;;;;;;5010534;28;20434;-62
2021/01/09 07:12:35;;;;;;;18.80;15.60;;;5.50;42.90;;;;;;5010269;28;20915;-64
2021/01/09 07:15:08;;;;;;;22.70;17.33;;;5.50;43.00;;;;;;5010054;28;20460;-63
2021/01/09 07:17:38;;;;;;;20.57;18.30;;;5.40;43.30;;;;;;5008491;28;20705;-63
2021/01/09 07:20:06;;;;;;;21.40;18.30;;;5.30;43.20;;;;;;5010240;28;20404;-63
2021/01/09 07:22:33;;;;;;;19.10;16.20;;;5.30;43.80;;;;;;5010286;28;20409;-63
2021/01/09 07:25:00;;;;;;;17.37;15.57;;;5.40;42.60;;;;;;5010197;28;20461;-64
2021/01/09 07:27:41;;;;;;;18.47;15.70;;;5.30;43.60;;;;;;5009771;28;20422;-64
2021/01/09 07:30:17;;;;;;;19.17;17.00;;;5.20;43.20;;;;;;5010797;28;20421;-63
2021/01/09 07:32:53;;;;;;;21.37;17.77;;;5.30;43.30;;;;;;5014194;28;20418;-63
2021/01/09 07:35:22;;;;;;;19.60;16.63;;;5.40;43.10;;;;;;5013619;28;20979;-63
2021/01/09 07:37:50;;;;;;;21.17;18.57;;;5.50;42.70;;;;;;5013632;28;20400;-64
2021/01/09 07:40:20;;;;;;;25.63;20.27;;;5.50;42.40;;;;;;5013746;28;20424;-64
2021/01/09 07:42:47;;;;;;;24.80;19.10;;;5.50;42.50;;;;;;5013519;28;20510;-64
2021/01/09 07:45:16;;;;;;;22.70;18.53;;;5.60;43.30;;;;;;5013644;28;20478;-64
2021/01/09 07:47:43;;;;;;;21.33;17.90;;;5.50;43.80;;;;;;5013479;28;20450;-63
2021/01/09 07:50:12;;;;;;;18.97;16.50;;;5.40;44.20;;;;;;5013186;28;20510;-64
2021/01/09 07:52:38;;;;;;;22.60;18.60;;;5.40;44.60;;;;;;5013504;28;20407;-64
2021/01/09 07:55:05;;;;;;;21.27;17.93;;;5.40;44.60;;;;;;5013424;28;20463;-64
2021/01/09 07:57:32;;;;;;;17.60;15.67;;;5.50;44.50;;;;;;5013152;28;20543;-64
2021/01/09 07:59:57;;;;;;;21.90;17.00;;;5.30;45.30;;;;;;5013648;28;20804;-64
2021/01/09 08:02:40;;;;;;;21.67;18.40;;;5.30;45.50;;;;;;5013378;28;20438;-61
2021/01/09 08:05:21;;;;;;;17.17;15.47;;;5.40;46.00;;;;;;5013385;28;20191;-65
2021/01/09 08:07:49;;;;;;;17.97;16.07;;;8.30;58.60;;;;;;5013456;28;20860;-64
2021/01/09 08:10:24;;;;;;;16.93;15.33;;;9.70;47.30;;;;;;5013327;28;20529;-65
2021/01/09 08:13:00;;;;;;;15.40;13.93;;;9.40;45.90;;;;;;5013505;28;20466;-64
2021/01/09 08:15:28;;;;;;;16.23;14.63;;;9.90;47.10;;;;;;5013237;28;20460;-64
2021/01/09 08:17:58;;;;;;;14.53;13.13;;;9.80;39.40;;;;;;5013228;28;20763;-64
2021/01/09 08:20:23;;;;;;;12.80;11.67;;;10.00;43.20;;;;;;5013321;28;20771;-64
2021/01/09 08:23:11;;;;;;;13.87;12.63;;;9.80;41.80;;;;;;5013347;28;20404;-65
2021/01/09 08:25:38;;;;;;;15.97;14.33;;;10.00;40.70;;;;;;5013361;28;20212;-64
2021/01/09 08:28:04;;;;;;;20.00;17.77;;;10.10;35.10;;;;;;5012992;28;20892;-64
2021/01/09 08:30:35;;;;;;;18.93;15.77;;;9.10;33.90;;;;;;5013258;28;20821;-64
2021/01/09 08:33:10;;;;;;;19.03;16.90;;;8.20;35.50;;;;;;5013230;28;20895;-63
2021/01/09 08:35:38;;;;;;;19.57;17.47;;;7.40;37.10;;;;;;5012783;28;20471;-64
2021/01/09 08:38:04;;;;;;;18.40;16.50;;;6.90;39.20;;;;;;5012853;28;20786;-64
2021/01/09 08:40:31;;;;;;;17.33;15.43;;;6.50;40.10;;;;;;5012889;28;20419;-64
2021/01/09 08:43:01;;;;;;;16.83;15.10;;;6.30;39.90;;;;;;5013039;28;20776;-64
2021/01/09 08:45:39;;;;;;;17.83;15.50;;;6.20;40.50;;;;;;5012976;28;20457;-64
2021/01/09 08:48:08;;;;;;;17.97;16.10;;;5.90;41.10;;;;;;5012632;28;20415;-64
2021/01/09 08:50:36;;;;;;;19.90;16.90;;;5.90;41.90;;;;;;5012727;28;20786;-64
2021/01/09 08:53:04;;;;;;;19.20;16.30;;;5.80;41.50;;;;;;5012596;28;20801;-64
2021/01/09 08:55:30;;;;;;;18.03;16.00;;;5.40;42.50;;;;;;5012560;28;20560;-64
2021/01/09 08:57:59;;;;;;;18.37;15.57;;;5.50;43.00;;;;;;5012228;28;20402;-64
2021/01/09 09:00:25;;;;;;;18.10;15.50;;;5.60;43.20;;;;;;5012236;28;20415;-64
2021/01/09 09:02:51;;;;;;;18.70;15.83;;;5.60;42.90;;;;;;5012935;28;21010;-64
2021/01/09 09:05:18;;;;;;;19.93;17.30;;;5.50;42.80;;;;;;5012222;28;20931;-64
2021/01/09 09:07:46;;;;;;;19.33;17.30;;;5.60;43.90;;;;;;5011038;28;20591;-64
2021/01/09 09:10:17;;;;;;;18.23;15.83;;;5.60;42.60;;;;;;5012333;28;20417;-64
2021/01/09 09:12:43;;;;;;;20.90;17.50;;;5.60;42.20;;;;;;5012452;28;20815;-64
2021/01/09 09:15:10;;;;;;;18.70;16.40;;;5.70;42.70;;;;;;5012319;28;20492;-64
2021/01/09 09:17:37;;;;;;;19.80;16.43;;;5.70;42.40;;;;;;5011837;28;20183;-64
2021/01/09 09:20:05;;;;;;;20.33;16.57;;;5.70;42.70;;;;;;5012035;28;20894;-64
2021/01/09 09:22:31;;;;;;;19.73;16.93;;;5.70;42.50;;;;;;5012083;28;20416;-64
2021/01/09 09:24:57;;;;;;;22.03;17.97;;;5.70;42.40;;;;;;5011801;28;20471;-64
2021/01/09 09:27:26;;;;;;;21.00;17.00;;;5.90;41.70;;;;;;5011596;28;20522;-65
2021/01/09 09:30:09;;;;;;;21.10;17.63;;;5.80;41.80;;;;;;5011733;28;20434;-64
2021/01/09 09:32:36;;;;;;;22.07;15.90;;;5.80;42.30;;;;;;5011902;28;20466;-64
2021/01/09 09:35:21;;;;;;;18.13;14.83;;;5.70;41.30;;;;;;5010607;28;20464;-64
2021/01/09 09:37:47;;;;;;;17.13;15.20;;;5.60;40.90;;;;;;5011995;28;20404;-64
2021/01/09 09:40:48;;;;;;;17.37;13.60;;;5.60;41.20;;;;;;5012041;28;20407;-64
2021/01/09 09:43:18;;;;;;;16.37;14.43;;;5.60;41.50;;;;;;4989970;28;20423;-64
2021/01/09 09:46:04;;;;;;;16.13;14.40;;;5.50;40.70;;;;;;5007796;28;20455;-64
2021/01/09 09:48:35;;;;;;;14.47;12.30;;;5.60;40.70;;;;;;5011533;28;20786;-64
2021/01/09 09:51:02;;;;;;;16.40;14.33;;;5.50;39.40;;;;;;5011894;28;20501;-64
2021/01/09 09:53:28;;;;;;;16.33;14.17;;;5.40;40.60;;;;;;5011163;28;20446;-64
2021/01/09 09:56:10;;;;;;;14.80;13.20;;;5.50;40.50;;;;;;5011735;28;20495;-64
2021/01/09 09:58:36;;;;;;;19.73;15.20;;;5.60;40.10;;;;;;5011595;28;20166;-64
2021/01/09 10:01:01;;;;;;;14.23;11.97;;;5.40;39.80;;;;;;5011493;28;20411;-64
2021/01/09 10:03:37;;;;;;;14.97;13.10;;;5.40;40.00;;;;;;5011265;28;20200;-63
2021/01/09 10:06:03;;;;;;;14.20;12.63;;;5.40;40.10;;;;;;5011149;28;20288;-63
2021/01/09 10:08:28;;;;;;;17.20;13.57;;;5.40;40.20;;;;;;5004674;28;20507;-63
2021/01/09 10:10:54;;;;;;;18.80;14.17;;;5.40;41.50;;;;;;5008966;28;20181;-64
2021/01/09 10:13:26;;;;;;;14.37;12.87;;;5.50;39.40;;;;;;5011260;28;20181;-64
2021/01/09 10:15:52;;;;;;;20.27;17.20;;;5.50;39.00;;;;;;5010514;28;20201;-65
2021/01/09 10:18:17;;;;;;;17.23;13.80;;;5.50;40.90;;;;;;5010743;28;20462;-63
2021/01/09 10:20:43;;;;;;;16.30;14.60;;;5.50;40.60;;;;;;5010929;28;20169;-64
2021/01/09 10:23:08;;;;;;;18.40;15.27;;;5.60;41.10;;;;;;5010717;28;20177;-64
2021/01/09 10:25:34;;;;;;;17.23;12.77;;;5.60;41.40;;;;;;5010772;28;20303;-64
2021/01/09 10:27:59;;;;;;;14.07;12.57;;;5.50;39.30;;;;;;5010663;28;20175;-64
2021/01/09 10:30:25;;;;;;;14.80;12.90;;;5.50;39.20;;;;;;5010558;28;20173;-64
2021/01/09 10:32:50;;;;;;;14.50;12.00;;;5.50;39.60;;;;;;5010693;28;20551;-62
2021/01/09 10:35:16;;;;;;;13.30;12.00;;;5.50;39.40;;;;;;5010721;28;20290;-63
2021/01/09 10:37:42;;;;;;;15.43;13.50;;;5.60;38.20;;;;;;5010295;28;20560;-65
2021/01/09 10:40:08;;;;;;;16.33;14.63;;;5.50;38.00;;;;;;5010893;28;20177;-64
2021/01/09 10:42:33;;;;;;;14.77;13.10;;;5.50;38.90;;;;;;5010900;28;20516;-62
2021/01/09 10:44:59;;;;;;;13.37;11.90;;;5.50;38.30;;;;;;5010429;28;20433;-62
2021/01/09 10:47:24;;;;;;;14.37;12.93;;;5.60;39.00;;;;;;5010452;28;20180;-63
2021/01/09 10:49:50;;;;;;;14.87;13.30;;;5.50;38.10;;;;;;5010831;28;20190;-62
2021/01/09 10:52:15;;;;;;;16.17;12.77;;;5.50;38.90;;;;;;5010429;28;20179;-62
2021/01/09 10:54:41;;;;;;;13.93;12.27;;;5.50;38.90;;;;;;5010547;28;20294;-62
2021/01/09 10:57:06;;;;;;;13.30;11.70;;;5.40;38.80;;;;;;5010352;28;20545;-62
2021/01/09 10:59:31;;;;;;;15.67;12.27;;;5.50;38.30;;;;;;5010255;28;20176;-62
2021/01/09 11:01:57;;;;;;;12.70;11.33;;;5.60;37.90;;;;;;5010435;28;20204;-62
2021/01/09 11:04:23;;;;;;;14.30;12.90;;;5.50;37.10;;;;;;5010970;28;20201;-62
2021/01/09 11:06:49;;;;;;;13.33;11.57;;;5.60;37.40;;;;;;5014246;28;20228;-62
2021/01/09 11:09:14;;;;;;;16.80;13.57;;;5.60;37.50;;;;;;5014079;28;20412;-62
2021/01/09 11:11:46;;;;;;;17.80;13.60;;;5.70;40.10;;;;;;5014313;28;20177;-62
2021/01/09 11:14:12;;;;;;;13.13;11.33;;;5.70;38.40;;;;;;5014601;28;20183;-64
2021/01/09 11:16:38;;;;;;;15.07;13.47;;;5.70;37.20;;;;;;5014338;28;20500;-64
2021/01/09 11:19:03;;;;;;;12.00;10.70;;;5.60;38.90;;;;;;5014391;28;20261;-64
2021/01/09 11:21:28;;;;;;;14.50;11.03;;;5.60;36.80;;;;;;5014419;28;20201;-64
2021/01/09 11:23:54;;;;;;;13.13;11.83;;;5.60;36.20;;;;;;5006642;28;20871;-64
2021/01/09 11:26:24;;;;;;;13.73;11.50;;;5.70;36.50;;;;;;5014162;28;20214;-64
2021/01/09 11:28:53;;;;;;;13.90;12.10;;;5.70;36.00;;;;;;5013860;28;20214;-64
2021/01/09 11:31:23;;;;;;;16.90;12.10;;;5.70;37.40;;;;;;5013497;28;20415;-64
2021/01/09 11:33:48;;;;;;;14.90;12.07;;;5.70;37.30;;;;;;5013790;28;20416;-65
2021/01/09 11:36:15;;;;;;;13.53;12.00;;;5.70;38.30;;;;;;5013925;28;20469;-63
2021/01/09 11:38:40;;;;;;;15.53;12.97;;;5.90;38.10;;;;;;5013313;28;20173;-64
2021/01/09 11:41:06;;;;;;;17.83;13.80;;;5.90;38.00;;;;;;5013869;28;20417;-64
2021/01/09 11:43:37;;;;;;;15.37;13.30;;;6.10;38.60;;;;;;5014285;28;20249;-64
2021/01/09 11:46:05;;;;;;;17.33;15.47;;;6.20;39.40;;;;;;5013607;28;20435;-63
2021/01/09 11:48:30;;;;;;;14.70;13.03;;;6.20;36.90;;;;;;5013507;28;20430;-63
2021/01/09 11:50:56;;;;;;;14.83;12.27;;;6.20;35.70;;;;;;5013995;28;20929;-64
2021/01/09 11:53:21;;;;;;;12.10;10.97;;;6.10;34.80;;;;;;5013977;28;20261;-64
2021/01/09 11:55:49;;;;;;;14.23;10.70;;;6.10;33.60;;;;;;5013772;28;20220;-63
2021/01/09 11:58:15;;;;;;;15.07;13.00;;;5.90;33.70;;;;;;5013702;28;20236;-63
2021/01/09 12:00:40;;;;;;;19.40;14.43;;;5.90;34.00;;;;;;5013752;28;20817;-63
2021/01/09 12:03:06;;;;;;;16.03;12.60;;;5.80;33.80;;;;;;5013914;28;20412;-64
2021/01/09 12:05:31;;;;;;;10.23;8.90;;;5.90;34.20;;;;;;5013701;28;20224;-63
2021/01/09 12:07:57;;;;;;;8.87;7.97;;;5.90;32.60;;;;;;5013605;28;20656;-64
2021/01/09 12:10:22;;;;;;;10.70;9.23;;;5.90;31.60;;;;;;5013718;28;20195;-64
2021/01/09 12:12:48;;;;;;;8.30;7.50;;;6.00;31.00;;;;;;5013690;28;20189;-64
2021/01/09 12:15:13;;;;;;;12.07;8.53;;;5.80;31.70;;;;;;5013411;28;20211;-63
2021/01/09 12:17:39;;;;;;;9.60;8.00;;;5.90;33.40;;;;;;5012574;28;20169;-64
2021/01/09 12:20:05;;;;;;;9.23;8.40;;;5.90;30.50;;;;;;5013568;28;20210;-64
2021/01/09 12:22:31;;;;;;;7.57;6.87;;;5.80;30.80;;;;;;5007196;28;20229;-64
2021/01/09 12:24:58;;;;;;;8.33;7.53;;;5.90;29.90;;;;;;5011454;28;20487;-64
2021/01/09 12:27:26;;;;;;;10.83;8.70;;;5.90;29.80;;;;;;5012605;28;20775;-64
2021/01/09 12:29:52;;;;;;;9.10;8.20;;;6.00;30.70;;;;;;5012711;28;20831;-64
2021/01/09 12:32:17;;;;;;;8.77;7.97;;;6.10;30.00;;;;;;5012375;28;20415;-64
2021/01/09 12:34:43;;;;;;;8.40;7.43;;;6.00;29.40;;;;;;5012613;28;20212;-64
2021/01/09 12:37:10;;;;;;;8.10;7.40;;;5.90;29.40;;;;;;5012372;28;20250;-63
2021/01/09 12:39:36;;;;;;;8.33;7.63;;;5.80;29.30;;;;;;5012483;28;20412;-65
2021/01/09 12:42:01;;;;;;;8.60;7.47;;;5.80;29.30;;;;;;5012359;28;20418;-65
2021/01/09 12:44:27;;;;;;;7.80;7.10;;;5.80;30.90;;;;;;5012339;28;20795;-65